createdAt,value
2017-09-03T00:00:28.650Z,9.95
2017-09-03T00:01:31.128Z,12.52
2017-09-03T00:02:33.601Z,10.45
2017-09-03T00:03:36.074Z,11.48
2017-09-03T00:04:38.582Z,14.32
2017-09-03T00:05:41.050Z,13.10
2017-09-03T00:06:43.532Z,11.20
2017-09-03T00:07:45.999Z,12.13
2017-09-03T00:08:48.459Z,9.85
2017-09-03T00:09:50.941Z,12.57
2017-09-03T00:10:53.556Z,10.57
2017-09-03T00:11:56.089Z,13.00
2017-09-03T00:12:58.557Z,10.73
2017-09-03T00:14:01.030Z,11.38
2017-09-03T00:15:03.503Z,11.30
2017-09-03T00:16:06.002Z,8.50
2017-09-03T00:17:08.511Z,9.60
2017-09-03T00:18:10.975Z,10.63
2017-09-03T00:19:14.272Z,14.23
2017-09-03T00:20:16.739Z,13.55
2017-09-03T00:21:19.213Z,9.25
2017-09-03T00:22:21.670Z,10.85
2017-09-03T00:23:24.174Z,11.73
2017-09-03T00:24:26.651Z,9.70
2017-09-03T00:25:29.155Z,11.93
2017-09-03T00:26:31.678Z,9.88
2017-09-03T00:27:34.144Z,8.77
2017-09-03T00:28:36.698Z,11.05
2017-09-03T00:29:39.176Z,10.70
2017-09-03T00:30:41.892Z,11.77
2017-09-03T00:31:44.378Z,13.35
2017-09-03T00:32:46.841Z,10.73
2017-09-03T00:33:49.302Z,11.43
2017-09-03T00:34:51.784Z,13.82
2017-09-03T00:35:54.302Z,10.38
2017-09-03T00:36:56.803Z,9.05
2017-09-03T00:37:59.364Z,10.10
2017-09-03T00:39:02.596Z,12.77
2017-09-03T00:40:05.075Z,11.52
2017-09-03T00:41:07.573Z,10.65
2017-09-03T00:42:10.051Z,9.13
2017-09-03T00:43:12.586Z,13.13
2017-09-03T00:44:15.117Z,12.10
2017-09-03T00:45:17.588Z,8.23
2017-09-03T00:46:20.093Z,10.38
2017-09-03T00:47:22.570Z,15.68
2017-09-03T00:48:25.116Z,15.73
2017-09-03T00:49:27.573Z,13.75
2017-09-03T00:50:30.101Z,9.30
2017-09-03T00:51:32.585Z,10.88
2017-09-03T00:52:35.057Z,11.20
2017-09-03T00:53:37.505Z,12.90
2017-09-03T00:54:40.745Z,12.48
2017-09-03T00:55:43.247Z,12.57
2017-09-03T00:56:45.863Z,11.05
2017-09-03T00:57:48.335Z,11.00
2017-09-03T00:58:50.816Z,12.43
2017-09-03T00:59:53.298Z,14.45
2017-09-03T01:00:55.775Z,15.60
2017-09-03T01:01:58.350Z,11.88
2017-09-03T01:03:00.862Z,11.80
2017-09-03T01:04:03.319Z,11.55
2017-09-03T01:05:05.788Z,44.00
2017-09-03T01:06:08.299Z,12.52
2017-09-03T01:07:10.810Z,10.98
2017-09-03T01:08:13.290Z,14.05
2017-09-03T01:09:15.758Z,16.92
2017-09-03T01:10:18.245Z,13.00
2017-09-03T01:11:20.735Z,13.32
2017-09-03T01:12:24.014Z,11.93
2017-09-03T01:13:26.545Z,15.68
2017-09-03T01:14:29.059Z,11.35
2017-09-03T01:15:31.541Z,12.95
2017-09-03T01:16:34.021Z,11.45
2017-09-03T01:17:36.526Z,11.77
2017-09-03T01:18:38.992Z,10.13
2017-09-03T01:19:41.483Z,12.00
2017-09-03T01:20:43.987Z,14.10
2017-09-03T01:21:46.556Z,14.23
2017-09-03T01:22:49.411Z,13.27
2017-09-03T01:23:51.898Z,13.82
2017-09-03T01:24:54.378Z,12.68
2017-09-03T01:25:56.968Z,12.18
2017-09-03T01:26:59.494Z,13.00
2017-09-03T01:28:02.033Z,11.07
2017-09-03T01:29:04.507Z,11.85
2017-09-03T01:30:06.970Z,11.80
2017-09-03T01:31:09.434Z,11.93
2017-09-03T01:32:11.933Z,17.23
2017-09-03T01:33:14.387Z,9.27
2017-09-03T01:34:16.880Z,14.35
2017-09-03T01:35:19.350Z,10.50
2017-09-03T01:36:22.845Z,13.93
2017-09-03T01:37:25.362Z,12.07
2017-09-03T01:38:27.913Z,13.68
2017-09-03T01:39:30.427Z,17.30
2017-09-03T01:40:32.892Z,13.77
2017-09-03T01:41:35.359Z,11.68
2017-09-03T01:42:37.861Z,12.80
2017-09-03T01:43:40.344Z,13.70
2017-09-03T01:44:42.862Z,15.13
2017-09-03T01:45:45.496Z,15.10
2017-09-03T01:46:47.998Z,15.77
2017-09-03T01:47:50.520Z,15.15
2017-09-03T01:48:53.002Z,14.30
2017-09-03T01:49:55.491Z,12.73
2017-09-03T01:50:57.966Z,13.40
2017-09-03T01:52:00.523Z,12.20
2017-09-03T01:53:03.110Z,11.52
2017-09-03T01:54:06.381Z,11.65
2017-09-03T01:55:08.846Z,18.87
2017-09-03T01:56:11.303Z,13.23
2017-09-03T01:57:13.872Z,13.38
2017-09-03T01:58:16.374Z,11.52
2017-09-03T01:59:19.627Z,13.98
2017-09-03T02:00:22.511Z,11.43
2017-09-03T02:01:25.056Z,13.88
2017-09-03T02:02:27.554Z,13.68
2017-09-03T02:03:30.022Z,14.45
2017-09-03T02:04:32.491Z,14.30
2017-09-03T02:05:35.006Z,11.30
2017-09-03T02:06:37.853Z,11.60
2017-09-03T02:07:40.395Z,11.75
2017-09-03T02:08:42.872Z,16.92
2017-09-03T02:09:45.393Z,12.60
2017-09-03T02:10:48.150Z,13.27
2017-09-03T02:11:50.768Z,11.38
2017-09-03T02:12:53.256Z,14.32
2017-09-03T02:13:56.525Z,14.50
2017-09-03T02:14:59.004Z,10.40
2017-09-03T02:16:01.495Z,10.68
2017-09-03T02:17:03.975Z,13.73
2017-09-03T02:18:06.439Z,12.68
2017-09-03T02:19:09.785Z,22.40
2017-09-03T02:20:12.271Z,11.68
2017-09-03T02:21:14.757Z,9.80
2017-09-03T02:22:17.255Z,11.18
2017-09-03T02:23:19.789Z,14.35
2017-09-03T02:24:22.923Z,15.50
2017-09-03T02:25:25.426Z,15.48
2017-09-03T02:26:27.925Z,11.60
2017-09-03T02:27:30.402Z,11.20
2017-09-03T02:28:32.904Z,15.23
2017-09-03T02:29:35.462Z,12.57
2017-09-03T02:30:37.980Z,13.68
2017-09-03T02:31:40.466Z,13.18
2017-09-03T02:32:43.025Z,11.32
2017-09-03T02:33:45.535Z,11.63
2017-09-03T02:34:47.994Z,12.88
2017-09-03T02:35:50.464Z,12.70
2017-09-03T02:36:53.019Z,10.48
2017-09-03T02:37:55.533Z,10.05
2017-09-03T02:38:58.115Z,13.48
2017-09-03T02:40:00.590Z,12.35
2017-09-03T02:41:03.065Z,11.85
2017-09-03T02:42:05.537Z,11.30
2017-09-03T02:43:08.002Z,10.63
2017-09-03T02:44:10.478Z,11.82
2017-09-03T02:45:13.016Z,12.70
2017-09-03T02:46:15.496Z,12.20
2017-09-03T02:47:17.949Z,12.90
2017-09-03T02:48:21.255Z,11.88
2017-09-03T02:49:23.736Z,14.50
2017-09-03T02:50:26.259Z,13.95
2017-09-03T02:51:28.830Z,14.55
2017-09-03T02:52:31.359Z,15.20
2017-09-03T02:53:33.987Z,14.48
2017-09-03T02:54:36.473Z,14.63
2017-09-03T02:55:39.031Z,11.55
2017-09-03T02:56:41.644Z,13.82
2017-09-03T02:57:44.133Z,13.30
2017-09-03T02:58:46.630Z,12.43
2017-09-03T02:59:49.096Z,13.52
2017-09-03T03:00:52.218Z,18.20
2017-09-03T03:01:54.760Z,14.10
2017-09-03T03:02:57.307Z,12.82
2017-09-03T03:04:00.277Z,11.35
2017-09-03T03:05:02.735Z,12.15
2017-09-03T03:06:05.227Z,10.80
2017-09-03T03:07:07.694Z,11.48
2017-09-03T03:08:10.228Z,14.20
2017-09-03T03:09:12.682Z,13.57
2017-09-03T03:10:15.146Z,13.57
2017-09-03T03:11:17.635Z,14.48
2017-09-03T03:12:20.095Z,12.18
2017-09-03T03:13:22.563Z,12.98
2017-09-03T03:14:25.234Z,16.23
2017-09-03T03:15:27.723Z,11.65
2017-09-03T03:16:30.194Z,22.70
2017-09-03T03:17:32.675Z,12.73
2017-09-03T03:18:35.176Z,12.95
2017-09-03T03:19:37.710Z,11.15
2017-09-03T03:20:40.183Z,11.75
2017-09-03T03:21:42.716Z,12.63
2017-09-03T03:22:45.178Z,13.73
2017-09-03T03:23:47.647Z,12.10
2017-09-03T03:24:50.187Z,17.70
2017-09-03T03:25:52.630Z,11.20
2017-09-03T03:26:55.129Z,15.82
2017-09-03T03:27:57.631Z,12.70
2017-09-03T03:29:00.126Z,12.68
2017-09-03T03:30:02.662Z,11.80
2017-09-03T03:31:05.130Z,13.05
2017-09-03T03:32:07.595Z,13.88
2017-09-03T03:33:10.069Z,12.00
2017-09-03T03:34:12.549Z,15.23
2017-09-03T03:35:15.041Z,13.27
2017-09-03T03:36:17.526Z,11.23
2017-09-03T03:37:20.007Z,12.77
2017-09-03T03:38:22.560Z,11.77
2017-09-03T03:39:25.031Z,12.25
2017-09-03T03:40:27.510Z,11.90
2017-09-03T03:41:29.978Z,15.77
2017-09-03T03:42:32.497Z,17.80
2017-09-03T03:43:35.011Z,12.50
2017-09-03T03:44:37.468Z,13.82
2017-09-03T03:45:39.942Z,12.40
2017-09-03T03:46:42.443Z,11.50
2017-09-03T03:47:45.653Z,16.08
2017-09-03T03:48:48.141Z,13.43
2017-09-03T03:49:50.639Z,13.55
2017-09-03T03:50:53.902Z,10.93
2017-09-03T03:51:56.412Z,14.10
2017-09-03T03:52:58.873Z,18.75
2017-09-03T03:54:01.333Z,12.32
2017-09-03T03:55:03.797Z,12.40
2017-09-03T03:56:06.277Z,12.02
2017-09-03T03:57:08.782Z,13.07
2017-09-03T03:58:11.278Z,13.90
2017-09-03T03:59:13.765Z,12.35
2017-09-03T04:00:17.031Z,14.43
2017-09-03T04:01:19.513Z,14.60
2017-09-03T04:02:21.977Z,14.75
2017-09-03T04:03:24.504Z,15.73
2017-09-03T04:04:27.032Z,15.35
2017-09-03T04:05:29.549Z,15.07
2017-09-03T04:06:32.092Z,13.02
2017-09-03T04:07:34.565Z,15.55
2017-09-03T04:08:37.063Z,20.95
2017-09-03T04:09:39.535Z,14.30
2017-09-03T04:10:42.798Z,16.75
2017-09-03T04:11:45.278Z,18.48
2017-09-03T04:12:47.855Z,16.60
2017-09-03T04:13:50.306Z,16.60
2017-09-03T04:14:52.771Z,14.77
2017-09-03T04:15:55.248Z,14.90
2017-09-03T04:16:57.863Z,18.37
2017-09-03T04:18:00.337Z,18.02
2017-09-03T04:19:02.792Z,18.80
2017-09-03T04:20:05.329Z,18.65
2017-09-03T04:21:07.873Z,17.92
2017-09-03T04:22:10.335Z,16.00
2017-09-03T04:23:12.847Z,17.23
2017-09-03T04:24:15.353Z,15.00
2017-09-03T04:25:17.826Z,15.48
2017-09-03T04:26:20.338Z,14.35
2017-09-03T04:27:22.806Z,14.35
2017-09-03T04:28:25.620Z,14.10
2017-09-03T04:29:28.911Z,15.02
2017-09-03T04:30:31.373Z,17.23
2017-09-03T04:31:34.754Z,20.02
2017-09-03T04:32:37.283Z,11.98
2017-09-03T04:33:39.762Z,15.82
2017-09-03T04:34:42.261Z,15.10
2017-09-03T04:35:44.765Z,12.25
2017-09-03T04:36:47.269Z,16.98
2017-09-03T04:37:49.725Z,13.73
2017-09-03T04:38:52.218Z,12.48
2017-09-03T04:39:54.682Z,14.20
2017-09-03T04:40:57.148Z,13.62
2017-09-03T04:41:59.610Z,13.60
2017-09-03T04:43:02.118Z,15.90
2017-09-03T04:44:04.592Z,14.45
2017-09-03T04:45:07.079Z,14.80
2017-09-03T04:46:09.545Z,10.48
2017-09-03T04:47:12.131Z,12.60
2017-09-03T04:48:14.636Z,12.10
2017-09-03T04:49:18.410Z,11.85
2017-09-03T04:50:20.969Z,12.23
2017-09-03T04:51:23.464Z,11.02
2017-09-03T04:52:25.943Z,12.98
2017-09-03T04:53:28.489Z,11.52
2017-09-03T04:54:31.062Z,11.02
2017-09-03T04:55:33.706Z,11.02
2017-09-03T04:56:36.176Z,11.32
2017-09-03T04:57:38.636Z,8.77
2017-09-03T04:58:41.120Z,17.83
2017-09-03T04:59:43.623Z,10.60
2017-09-03T05:00:46.094Z,12.48
2017-09-03T05:01:48.571Z,10.60
2017-09-03T05:02:51.080Z,13.60
2017-09-03T05:03:53.541Z,11.20
2017-09-03T05:04:56.113Z,10.73
2017-09-03T05:05:58.619Z,9.32
2017-09-03T05:07:01.867Z,14.43
2017-09-03T05:08:04.394Z,9.52
2017-09-03T05:09:06.855Z,10.40
2017-09-03T05:10:09.324Z,12.68
2017-09-03T05:11:12.601Z,12.93
2017-09-03T05:12:15.088Z,16.05
2017-09-03T05:13:17.680Z,14.35
2017-09-03T05:14:20.175Z,14.10
2017-09-03T05:15:22.673Z,16.95
2017-09-03T05:16:25.166Z,17.52
2017-09-03T05:17:27.745Z,15.88
2017-09-03T05:18:30.219Z,14.63
2017-09-03T05:19:32.713Z,23.50
2017-09-03T05:20:35.244Z,12.80
2017-09-03T05:21:37.781Z,13.55
2017-09-03T05:22:40.271Z,13.38
2017-09-03T05:23:42.803Z,10.30
2017-09-03T05:24:45.273Z,12.02
2017-09-03T05:25:47.775Z,9.43
2017-09-03T05:26:50.292Z,12.55
2017-09-03T05:27:52.753Z,8.90
2017-09-03T05:28:55.438Z,12.27
2017-09-03T05:29:57.917Z,11.75
2017-09-03T05:31:00.896Z,9.57
2017-09-03T05:32:03.394Z,10.40
2017-09-03T05:33:05.909Z,11.57
2017-09-03T05:34:08.485Z,11.05
2017-09-03T05:35:10.976Z,8.63
2017-09-03T05:36:14.323Z,8.50
2017-09-03T05:37:16.849Z,8.57
2017-09-03T05:38:19.313Z,9.20
2017-09-03T05:39:21.781Z,7.45
2017-09-03T05:40:24.284Z,10.00
2017-09-03T05:41:26.790Z,12.23
2017-09-03T05:42:29.255Z,10.40
2017-09-03T05:43:31.793Z,7.97
2017-09-03T05:44:34.274Z,19.55
2017-09-03T05:45:36.760Z,6.55
2017-09-03T05:46:39.246Z,8.50
2017-09-03T05:47:41.739Z,8.90
2017-09-03T05:48:44.225Z,9.40
2017-09-03T05:49:46.770Z,8.30
2017-09-03T05:50:49.298Z,7.20
2017-09-03T05:51:51.821Z,7.70
2017-09-03T05:52:54.306Z,6.80
2017-09-03T05:53:56.779Z,6.72
2017-09-03T05:54:59.258Z,8.98
2017-09-03T05:56:01.758Z,10.02
2017-09-03T05:57:04.261Z,8.57
2017-09-03T05:58:06.746Z,11.63
2017-09-03T05:59:09.270Z,9.00
2017-09-03T06:00:11.755Z,6.37
2017-09-03T06:01:14.238Z,11.52
2017-09-03T06:02:16.718Z,10.63
2017-09-03T06:03:19.205Z,9.43
2017-09-03T06:04:21.715Z,6.62
2017-09-03T06:05:24.208Z,8.07
2017-09-03T06:06:26.705Z,7.00
2017-09-03T06:07:29.287Z,10.35
2017-09-03T06:08:31.757Z,8.02
2017-09-03T06:09:34.238Z,14.52
2017-09-03T06:10:36.705Z,6.93
2017-09-03T06:11:39.187Z,8.75
2017-09-03T06:12:41.649Z,7.15
2017-09-03T06:13:44.161Z,8.73
2017-09-03T06:14:46.629Z,9.55
2017-09-03T06:15:49.134Z,9.23
2017-09-03T06:16:51.598Z,7.25
2017-09-03T06:17:54.145Z,7.40
2017-09-03T06:18:56.604Z,5.95
2017-09-03T06:19:59.155Z,6.53
2017-09-03T06:21:01.685Z,7.50
2017-09-03T06:22:04.200Z,8.15
2017-09-03T06:23:06.675Z,8.60
2017-09-03T06:24:09.192Z,8.10
2017-09-03T06:25:11.663Z,9.20
2017-09-03T06:26:14.193Z,7.53
2017-09-03T06:27:16.675Z,7.68
2017-09-03T06:28:19.197Z,9.32
2017-09-03T06:29:21.709Z,6.65
2017-09-03T06:30:24.200Z,7.20
2017-09-03T06:31:26.708Z,7.12
2017-09-03T06:32:29.164Z,7.70
2017-09-03T06:33:31.745Z,11.38
2017-09-03T06:34:34.227Z,9.55
2017-09-03T06:35:36.727Z,6.57
2017-09-03T06:36:39.205Z,9.23
2017-09-03T06:37:41.669Z,7.43
2017-09-03T06:38:44.168Z,7.25
2017-09-03T06:39:46.655Z,10.48
2017-09-03T06:40:49.153Z,11.60
2017-09-03T06:41:51.616Z,7.85
2017-09-03T06:42:54.156Z,7.68
2017-09-03T06:43:56.655Z,6.18
2017-09-03T06:44:59.190Z,9.50
2017-09-03T06:46:01.749Z,8.90
2017-09-03T06:47:04.206Z,10.02
2017-09-03T06:48:06.706Z,7.53
2017-09-03T06:49:09.193Z,7.75
2017-09-03T06:50:11.665Z,7.72
2017-09-03T06:51:14.123Z,10.80
2017-09-03T06:52:16.588Z,7.05
2017-09-03T06:53:19.089Z,6.53
2017-09-03T06:54:21.552Z,9.55
2017-09-03T06:55:24.017Z,5.60
2017-09-03T06:56:26.570Z,7.57
2017-09-03T06:57:29.015Z,10.48
2017-09-03T06:58:31.542Z,8.65
2017-09-03T06:59:33.990Z,6.30
2017-09-03T07:00:36.485Z,7.97
2017-09-03T07:01:38.956Z,7.60
2017-09-03T07:02:41.542Z,8.98
2017-09-03T07:03:44.065Z,9.02
2017-09-03T07:04:46.577Z,6.60
2017-09-03T07:05:49.126Z,8.60
2017-09-03T07:06:52.413Z,6.05
2017-09-03T07:07:54.881Z,6.07
2017-09-03T07:08:57.432Z,7.87
2017-09-03T07:09:59.899Z,5.45
2017-09-03T07:11:02.362Z,7.37
2017-09-03T07:12:04.895Z,8.88
2017-09-03T07:13:08.580Z,6.68
2017-09-03T07:14:11.061Z,5.53
2017-09-03T07:15:13.530Z,7.15
2017-09-03T07:16:15.990Z,5.60
2017-09-03T07:17:18.552Z,5.20
2017-09-03T07:18:21.051Z,5.22
2017-09-03T07:19:23.525Z,6.65
2017-09-03T07:20:26.018Z,5.82
2017-09-03T07:21:28.496Z,5.45
2017-09-03T07:22:30.969Z,4.47
2017-09-03T07:23:33.487Z,4.28
2017-09-03T07:24:35.993Z,6.90
2017-09-03T07:25:38.529Z,3.85
2017-09-03T07:26:40.993Z,4.70
2017-09-03T07:27:43.485Z,4.68
2017-09-03T07:28:45.946Z,6.22
2017-09-03T07:29:48.447Z,3.78
2017-09-03T07:30:50.926Z,3.90
2017-09-03T07:31:54.269Z,6.20
2017-09-03T07:32:57.649Z,3.83
2017-09-03T07:34:00.160Z,5.57
2017-09-03T07:35:02.635Z,8.57
2017-09-03T07:36:05.096Z,2.90
2017-09-03T07:37:08.691Z,4.25
2017-09-03T07:38:11.212Z,5.60
2017-09-03T07:39:13.714Z,4.85
2017-09-03T07:40:16.256Z,6.05
2017-09-03T07:41:18.726Z,3.45
2017-09-03T07:42:21.188Z,3.35
2017-09-03T07:43:24.073Z,3.33
2017-09-03T07:44:26.571Z,3.62
2017-09-03T07:45:29.071Z,3.30
2017-09-03T07:46:31.545Z,4.10
2017-09-03T07:47:34.025Z,3.67
2017-09-03T07:48:36.500Z,4.47
2017-09-03T07:49:38.975Z,3.65
2017-09-03T07:50:41.501Z,4.45
2017-09-03T07:51:44.020Z,4.32
2017-09-03T07:52:46.523Z,4.70
2017-09-03T07:53:49.028Z,3.00
2017-09-03T07:54:51.494Z,4.82
2017-09-03T07:55:55.083Z,7.20
2017-09-03T07:56:57.571Z,3.60
2017-09-03T07:58:00.796Z,5.05
2017-09-03T07:59:03.253Z,3.08
2017-09-03T08:00:05.791Z,3.47
2017-09-03T08:01:08.284Z,4.20
2017-09-03T08:02:10.738Z,3.87
2017-09-03T08:03:13.465Z,2.28
2017-09-03T08:04:16.241Z,8.05
2017-09-03T08:05:18.709Z,4.05
2017-09-03T08:06:21.211Z,4.55
2017-09-03T08:07:25.299Z,3.83
2017-09-03T08:08:27.778Z,4.65
2017-09-03T08:09:30.352Z,4.78
2017-09-03T08:10:32.916Z,6.00
2017-09-03T08:11:35.412Z,4.07
2017-09-03T08:12:37.934Z,2.00
2017-09-03T08:13:40.448Z,3.28
2017-09-03T08:14:42.905Z,4.57
2017-09-03T08:15:45.389Z,4.43
2017-09-03T08:16:47.855Z,3.22
2017-09-03T08:17:50.368Z,3.50
2017-09-03T08:18:52.837Z,3.35
2017-09-03T08:19:55.434Z,3.17
2017-09-03T08:20:57.905Z,6.80
2017-09-03T08:22:00.431Z,3.08
2017-09-03T08:23:03.005Z,2.10
2017-09-03T08:24:05.502Z,4.55
2017-09-03T08:25:07.975Z,4.12
2017-09-03T08:26:10.547Z,2.78
2017-09-03T08:27:13.008Z,3.12
2017-09-03T08:28:15.484Z,3.08
2017-09-03T08:29:17.934Z,3.35
2017-09-03T08:30:20.421Z,3.42
2017-09-03T08:31:22.904Z,2.87
2017-09-03T08:32:25.389Z,4.75
2017-09-03T08:33:27.900Z,3.37
2017-09-03T08:34:30.368Z,5.75
2017-09-03T08:35:32.880Z,1.90
2017-09-03T08:36:35.384Z,3.35
2017-09-03T08:37:38.602Z,3.83
2017-09-03T08:38:42.041Z,4.00
2017-09-03T08:39:44.514Z,3.90
2017-09-03T08:40:47.732Z,2.03
2017-09-03T08:41:50.996Z,4.82
2017-09-03T08:42:53.476Z,2.22
2017-09-03T08:43:56.068Z,2.65
2017-09-03T08:44:58.560Z,2.33
2017-09-03T08:46:01.114Z,4.05
2017-09-03T08:47:03.632Z,2.90
2017-09-03T08:48:06.097Z,3.35
2017-09-03T08:49:08.569Z,5.78
2017-09-03T08:50:11.043Z,3.10
2017-09-03T08:51:13.529Z,2.08
2017-09-03T08:52:16.041Z,3.40
2017-09-03T08:53:19.309Z,2.58
2017-09-03T08:54:21.792Z,4.37
2017-09-03T08:55:24.272Z,5.15
2017-09-03T08:56:26.730Z,4.25
2017-09-03T08:57:29.265Z,2.12
2017-09-03T08:58:31.731Z,8.98
2017-09-03T08:59:34.232Z,3.90
2017-09-03T09:00:36.686Z,3.25
2017-09-03T09:01:39.163Z,2.55
2017-09-03T09:02:41.724Z,1.87
2017-09-03T09:03:44.182Z,4.20
2017-09-03T09:04:46.712Z,1.75
2017-09-03T09:05:49.185Z,5.90
2017-09-03T09:06:51.747Z,3.92
2017-09-03T09:07:54.348Z,2.53
2017-09-03T09:08:57.324Z,2.03
2017-09-03T09:09:59.797Z,4.95
2017-09-03T09:11:02.353Z,4.10
2017-09-03T09:12:04.813Z,2.72
2017-09-03T09:13:07.311Z,3.90
2017-09-03T09:14:09.773Z,4.05
2017-09-03T09:15:12.233Z,10.85
2017-09-03T09:16:14.751Z,3.17
2017-09-03T09:17:17.247Z,2.28
2017-09-03T09:18:19.808Z,3.58
2017-09-03T09:19:22.374Z,2.72
2017-09-03T09:20:24.847Z,2.92
2017-09-03T09:21:27.373Z,1.98
2017-09-03T09:22:29.872Z,5.12
2017-09-03T09:23:32.376Z,7.47
2017-09-03T09:24:34.863Z,4.07
2017-09-03T09:25:38.011Z,3.30
2017-09-03T09:26:40.571Z,3.95
2017-09-03T09:27:43.028Z,2.62
2017-09-03T09:28:45.506Z,7.12
2017-09-03T09:29:47.965Z,5.20
2017-09-03T09:30:50.460Z,2.05
2017-09-03T09:31:52.930Z,4.25
2017-09-03T09:32:55.401Z,4.85
2017-09-03T09:33:57.902Z,2.00
2017-09-03T09:35:00.392Z,2.95
2017-09-03T09:36:02.885Z,3.05
2017-09-03T09:37:05.367Z,6.28
2017-09-03T09:38:07.849Z,5.22
2017-09-03T09:39:10.293Z,2.42
2017-09-03T09:40:12.762Z,3.72
2017-09-03T09:41:15.241Z,7.60
2017-09-03T09:42:17.730Z,5.57
2017-09-03T09:43:20.246Z,2.33
2017-09-03T09:44:22.735Z,1.95
2017-09-03T09:45:25.227Z,4.00
2017-09-03T09:46:27.708Z,2.87
2017-09-03T09:47:30.162Z,3.47
2017-09-03T09:48:32.625Z,2.83
2017-09-03T09:49:35.139Z,2.03
2017-09-03T09:50:37.661Z,3.33
2017-09-03T09:51:40.129Z,6.37
2017-09-03T09:52:42.702Z,4.85
2017-09-03T09:53:45.152Z,3.22
2017-09-03T09:54:47.645Z,3.35
2017-09-03T09:55:50.149Z,2.08
2017-09-03T09:56:52.612Z,2.85
2017-09-03T09:57:55.062Z,3.15
2017-09-03T09:58:57.536Z,1.40
2017-09-03T10:00:00.089Z,2.72
2017-09-03T10:01:02.669Z,2.05
2017-09-03T10:02:05.177Z,5.70
2017-09-03T10:03:07.729Z,3.37
2017-09-03T10:04:10.232Z,3.15
2017-09-03T10:05:12.759Z,1.70
2017-09-03T10:06:15.238Z,2.70
2017-09-03T10:07:18.563Z,1.70
2017-09-03T10:08:21.065Z,2.10
2017-09-03T10:09:23.565Z,2.37
2017-09-03T10:10:26.094Z,4.00
2017-09-03T10:11:28.605Z,1.60
2017-09-03T10:12:31.162Z,8.32
2017-09-03T10:13:33.681Z,1.98
2017-09-03T10:14:36.144Z,3.72
2017-09-03T10:15:38.621Z,2.37
2017-09-03T10:16:41.169Z,1.87
2017-09-03T10:17:43.669Z,1.73
2017-09-03T10:18:46.203Z,2.78
2017-09-03T10:19:48.696Z,3.95
2017-09-03T10:20:51.181Z,2.78
2017-09-03T10:21:53.682Z,2.42
2017-09-03T10:22:56.142Z,1.65
2017-09-03T10:23:58.624Z,2.45
2017-09-03T10:25:01.120Z,3.35
2017-09-03T10:26:03.617Z,5.78
2017-09-03T10:27:06.081Z,3.95
2017-09-03T10:28:08.634Z,1.60
2017-09-03T10:29:11.086Z,3.97
2017-09-03T10:30:13.553Z,3.55
2017-09-03T10:31:16.006Z,2.97
2017-09-03T10:32:18.650Z,2.08
2017-09-03T10:33:21.153Z,2.55
2017-09-03T10:34:23.650Z,1.87
2017-09-03T10:35:26.119Z,1.98
2017-09-03T10:36:28.578Z,2.25
2017-09-03T10:37:31.067Z,2.22
2017-09-03T10:38:33.557Z,3.47
2017-09-03T10:39:36.025Z,2.05
2017-09-03T10:40:38.547Z,3.22
2017-09-03T10:41:41.016Z,1.80
2017-09-03T10:42:43.489Z,2.87
2017-09-03T10:43:45.998Z,5.22
2017-09-03T10:44:49.264Z,4.75
2017-09-03T10:45:51.761Z,2.65
2017-09-03T10:46:55.016Z,8.27
2017-09-03T10:47:57.473Z,1.37
2017-09-03T10:48:59.939Z,2.03
2017-09-03T10:50:02.404Z,1.70
2017-09-03T10:51:04.895Z,2.50
2017-09-03T10:52:07.392Z,3.78
2017-09-03T10:53:09.903Z,3.33
2017-09-03T10:54:12.379Z,2.45
2017-09-03T10:55:14.935Z,1.52
2017-09-03T10:56:17.432Z,1.30
2017-09-03T10:57:19.983Z,2.00
2017-09-03T10:58:22.426Z,1.33
2017-09-03T10:59:24.907Z,1.37
2017-09-03T11:00:27.381Z,1.30
2017-09-03T11:01:29.871Z,4.12
2017-09-03T11:02:32.331Z,3.25
2017-09-03T11:03:34.801Z,3.58
2017-09-03T11:04:37.366Z,1.98
2017-09-03T11:05:39.882Z,3.30
2017-09-03T11:06:42.376Z,1.35
2017-09-03T11:07:44.909Z,3.22
2017-09-03T11:08:47.373Z,2.58
2017-09-03T11:09:49.840Z,3.08
2017-09-03T11:10:52.413Z,1.40
2017-09-03T11:11:54.974Z,1.77
2017-09-03T11:12:57.508Z,3.35
2017-09-03T11:13:59.991Z,1.58
2017-09-03T11:15:02.460Z,2.28
2017-09-03T11:16:04.944Z,2.40
2017-09-03T11:17:07.455Z,2.92
2017-09-03T11:18:09.935Z,1.80
2017-09-03T11:19:12.422Z,3.12
2017-09-03T11:20:14.903Z,1.52
2017-09-03T11:21:18.030Z,1.70
2017-09-03T11:22:20.520Z,1.60
2017-09-03T11:23:23.013Z,7.07
2017-09-03T11:24:25.680Z,2.50
2017-09-03T11:25:28.168Z,4.75
2017-09-03T11:26:30.715Z,2.97
2017-09-03T11:27:33.173Z,2.30
2017-09-03T11:28:35.651Z,2.95
2017-09-03T11:29:38.120Z,1.45
2017-09-03T11:30:40.618Z,4.00
2017-09-03T11:31:43.094Z,1.62
2017-09-03T11:32:45.565Z,4.03
2017-09-03T11:33:48.024Z,5.45
2017-09-03T11:34:50.489Z,4.20
2017-09-03T11:35:53.002Z,3.53
2017-09-03T11:36:55.458Z,6.03
2017-09-03T11:37:57.935Z,7.05
2017-09-03T11:39:00.394Z,2.50
2017-09-03T11:40:02.864Z,4.07
2017-09-03T11:41:05.345Z,1.58
2017-09-03T11:42:07.786Z,2.40
2017-09-03T11:43:10.255Z,2.92
2017-09-03T11:44:12.724Z,1.58
2017-09-03T11:45:15.184Z,1.95
2017-09-03T11:46:17.683Z,1.40
2017-09-03T11:47:20.186Z,1.58
2017-09-03T11:48:22.668Z,2.90
2017-09-03T11:49:25.182Z,4.03
2017-09-03T11:50:28.374Z,2.72
2017-09-03T11:51:30.825Z,2.15
2017-09-03T11:52:33.425Z,1.60
2017-09-03T11:53:35.895Z,1.75
2017-09-03T11:54:38.384Z,1.52
2017-09-03T11:55:40.904Z,1.35
2017-09-03T11:56:43.373Z,5.35
2017-09-03T11:57:45.981Z,1.58
2017-09-03T11:58:48.504Z,1.35
2017-09-03T11:59:50.970Z,3.20
2017-09-03T12:00:53.483Z,2.97
2017-09-03T12:01:55.930Z,1.85
2017-09-03T12:02:58.398Z,3.15
2017-09-03T12:04:00.906Z,4.05
2017-09-03T12:05:03.433Z,4.65
2017-09-03T12:06:06.813Z,2.60
2017-09-03T12:07:09.296Z,2.78
2017-09-03T12:08:11.767Z,1.62
2017-09-03T12:09:14.274Z,3.03
2017-09-03T12:10:16.877Z,1.52
2017-09-03T12:11:19.339Z,4.05
2017-09-03T12:12:22.011Z,6.60
2017-09-03T12:13:24.523Z,2.03
2017-09-03T12:14:27.497Z,1.90
2017-09-03T12:15:30.349Z,1.77
2017-09-03T12:16:32.808Z,4.25
2017-09-03T12:17:35.260Z,4.05
2017-09-03T12:18:38.529Z,7.03
2017-09-03T12:19:40.971Z,3.20
2017-09-03T12:20:43.484Z,2.72
2017-09-03T12:21:45.978Z,2.55
2017-09-03T12:22:49.215Z,2.20
2017-09-03T12:23:51.677Z,2.65
2017-09-03T12:24:54.173Z,4.43
2017-09-03T12:25:56.709Z,2.40
2017-09-03T12:26:59.178Z,3.70
2017-09-03T12:28:01.639Z,2.85
2017-09-03T12:29:04.145Z,4.32
2017-09-03T12:30:07.039Z,3.67
2017-09-03T12:31:09.525Z,1.92
2017-09-03T12:32:12.764Z,4.50
2017-09-03T12:33:15.264Z,3.08
2017-09-03T12:34:17.737Z,3.05
2017-09-03T12:35:20.270Z,2.28
2017-09-03T12:36:22.781Z,2.00
2017-09-03T12:37:25.332Z,4.45
2017-09-03T12:38:28.665Z,2.37
2017-09-03T12:39:31.206Z,2.50
2017-09-03T12:40:33.710Z,2.58
2017-09-03T12:41:36.220Z,2.03
2017-09-03T12:42:38.695Z,4.10
2017-09-03T12:43:41.187Z,1.42
2017-09-03T12:44:43.654Z,4.85
2017-09-03T12:45:46.967Z,2.03
2017-09-03T12:46:49.444Z,1.95
2017-09-03T12:47:52.723Z,4.32
2017-09-03T12:48:55.169Z,1.55
2017-09-03T12:49:57.635Z,2.45
2017-09-03T12:51:00.150Z,1.75
2017-09-03T12:52:02.618Z,2.60
2017-09-03T12:53:05.088Z,2.95
2017-09-03T12:54:07.551Z,1.85
2017-09-03T12:55:10.114Z,2.25
2017-09-03T12:56:12.685Z,3.62
2017-09-03T12:57:15.153Z,3.45
2017-09-03T12:58:18.041Z,3.40
2017-09-03T12:59:20.633Z,2.28
2017-09-03T13:00:23.192Z,3.37
2017-09-03T13:01:25.660Z,2.12
2017-09-03T13:02:28.188Z,2.05
2017-09-03T13:03:30.689Z,3.97
2017-09-03T13:04:33.175Z,1.87
2017-09-03T13:05:36.199Z,1.95
2017-09-03T13:06:38.701Z,1.70
2017-09-03T13:07:42.184Z,2.42
2017-09-03T13:08:44.656Z,2.20
2017-09-03T13:09:47.125Z,3.30
2017-09-03T13:10:49.655Z,2.55
2017-09-03T13:11:52.116Z,2.05
2017-09-03T13:12:54.675Z,3.22
2017-09-03T13:13:57.900Z,1.60
2017-09-03T13:15:01.153Z,2.72
2017-09-03T13:16:03.670Z,2.28
2017-09-03T13:17:06.140Z,2.28
2017-09-03T13:18:08.627Z,1.58
2017-09-03T13:19:11.195Z,1.50
2017-09-03T13:20:13.663Z,2.65
2017-09-03T13:21:16.168Z,2.87
2017-09-03T13:22:18.640Z,2.55
2017-09-03T13:23:21.119Z,2.20
2017-09-03T13:24:23.639Z,3.58
2017-09-03T13:25:26.232Z,1.37
2017-09-03T13:26:28.710Z,1.60
2017-09-03T13:27:31.170Z,2.92
2017-09-03T13:28:33.657Z,2.40
2017-09-03T13:29:36.188Z,3.85
2017-09-03T13:30:38.645Z,1.80
2017-09-03T13:31:41.126Z,1.52
2017-09-03T13:32:43.707Z,2.00
2017-09-03T13:33:46.188Z,4.70
2017-09-03T13:34:48.781Z,4.82
2017-09-03T13:35:51.367Z,1.67
2017-09-03T13:36:53.920Z,2.03
2017-09-03T13:37:56.374Z,2.08
2017-09-03T13:38:58.859Z,2.55
2017-09-03T13:40:01.421Z,5.75
2017-09-03T13:41:03.929Z,1.65